x

Slate Island (45136) Wave Buoy

10:00pm - Fri 19th Sep 2014 All times are CDT. -5 hours from GMT.

  • Sig Wave height 5.9ft
  • Peak Period 6s
  • Wind
    16mph, 20mph gusts
  • Sea Temp 44°f
  • Air Temp 47°f
  • Sea Pressure 1002.4mb
  • Slate Island
  • Slate Island

More Historic Weather Station data

Upgrade to MSW Pro to gain access to the past 30 days of data for over 8000 Wavebouys and Weather Stations around the globe.

Join Pro

Comparision Forecast

View Surf forecast
   
Fri 09/19 10:00pm 6ft 6s 16 20 mph 1002.4mb 44f 47f
9:00pm 6.5ft 6s 18 22 mph 1002.8mb 43f 47f
8:00pm 6.5ft 6s 22 27 mph 1003mb 43f 48f
7:00pm 7ft 6s 22 27 mph 1003.8mb 44f 48f
6:00pm 7ft 7s 20 25 mph 1005mb 44f 48f
5:00pm 7ft 6s 22 27 mph 1005.1mb 44f 48f
4:00pm 8ft 7s 25 29 mph 1006mb 44f 48f
3:00pm 7.5ft 7s 25 31 mph 1007.2mb 44f 48f
2:00pm 7ft 6s 25 29 mph 1007.5mb 44f 48f
1:00pm 7ft 7s 25 31 mph 1009.1mb 44f 48f
12:00pm 7ft 6s 25 29 mph 1010.7mb 44f 47f
11:00am 6ft 6s 25 29 mph 1011.7mb 44f 47f
10:00am 6ft 5s 22 27 mph 1012.4mb 44f 47f
9:00am 6ft 6s 22 27 mph 1013.1mb 44f 46f
8:00am 6ft 6s 25 27 mph 1014.3mb 44f 46f
7:00am 6ft 6s 25 31 mph 1015.1mb 44f 46f
6:00am 5ft 5s 25 29 mph 1015.6mb 44f 46f
5:00am 5ft 5s 22 27 mph 1016.3mb 44f 46f
4:00am 4.5ft 5s 20 22 mph 1017.4mb 44f 45f
3:00am 4.5ft 5s 20 25 mph 1017.5mb 44f 45f
2:00am 3.5ft 4s 20 22 mph 1018.1mb 44f 46f
1:00am 2.5ft 4s 20 25 mph 1018.5mb 44f 46f
12:00am 2ft 3s 18 20 mph 1019.1mb 44f 45f
Thu 09/18 11:00pm 1.6ft 3s 13 16 mph 1020.1mb 44f 44f
10:00pm 1ft 3s 13 16 mph 1021.1mb 44f 44f
9:00pm 1ft 3s 7 9 mph 1021.5mb 44f 43f
8:00pm 1ft 3s 7
mph
1021.9mb 45f 43f
7:00pm 1ft 3s 4 7 mph 1021.6mb 46f 42f
6:00pm 1ft 2s 9
mph
1022.2mb 47f 43f
5:00pm 0.7ft 2s 11
mph
1022.6mb 46f 43f
4:00pm 0.7ft 2s 9 11 mph 1023.5mb 44f 44f
3:00pm 0.7ft 2s 9 11 mph 1024mb 44f 44f
2:00pm 0.7ft 2s 9 11 mph 1024.8mb 44f 43f
1:00pm 0.7ft 2s 9 11 mph 1025.2mb 44f 43f
12:00pm 0.3ft 2s 9 11 mph 1025.2mb 44f 43f
11:00am 0.3ft 5s 9 11 mph 1025.1mb 44f 43f
10:00am 0.3ft 6s 7 9 mph 1025.3mb 44f 43f
9:00am 0.3ft 5s 7
mph
1024.9mb 44f 43f
8:00am 0.3ft 5s 7
mph
1024.6mb 44f 42f
7:00am 0.3ft 5s 4
mph
1024.2mb 43f 42f
6:00am 0.3ft 2s 2 4 mph 1023.9mb 44f 42f
5:00am 0.3ft 6s 4
mph
1023.7mb 44f 42f
4:00am 0.3ft 6s 4 7 mph 1023.1mb 45f 42f
3:00am 0.3ft 2s 4
mph
1023mb 45f 42f
2:00am 0.3ft 5s 4 7 mph 1022.6mb 45f 42f
1:00am 0.3ft 5s 4 7 mph 1022.3mb 45f 43f
12:00am 0.3ft 2s 7 9 mph 1022.2mb 45f 43f
Wed 09/17 11:00pm 0.7ft 2s 4 9 mph 1022.1mb 44f 43f
10:00pm 0.7ft 3s 4 7 mph 1021.9mb 44f 44f
9:00pm 1ft 3s 7 9 mph 1021.5mb 44f 44f
8:00pm 1.3ft 3s 7 9 mph 1021.3mb 44f 44f
7:00pm 1.3ft 3s 13 18 mph 1020.6mb 44f 44f
6:00pm 1.3ft 3s 13
mph
1020.1mb 44f 44f
5:00pm 1.3ft 3s 4 7 mph 1020mb 44f 43f
4:00pm 1.6ft 3s 11 13 mph 1019.4mb 44f 42f
3:00pm 2ft 3s 16 18 mph 1019mb 45f 42f
2:00pm 2ft 3s 16 20 mph 1018.7mb 45f 41f
1:00pm 2.5ft 4s 16 18 mph 1018.6mb 45f 40f
12:00pm 2.5ft 4s 18 20 mph 1018.2mb 46f 40f
11:00am 2.5ft 4s 18 20 mph 1017.8mb 46f 39f
10:00am 2.5ft 4s 18 20 mph 1017.5mb 46f 39f
9:00am 3ft 4s 18 22 mph 1016.8mb 46f 39f
8:00am 3.5ft 4s 20 25 mph 1016.5mb 46f 39f
7:00am 3.5ft 4s 20 22 mph 1016.4mb 47f 39f
6:00am 3ft 4s 22 27 mph 1016.7mb 47f 38f
5:00am 2.5ft 4s 20 27 mph 1016.5mb 47f 40f
4:00am 2.5ft 4s 16 18 mph 1015.7mb 47f 42f
3:00am 2.5ft 4s 18 20 mph 1015.7mb 47f 42f
2:00am 2.5ft 6s 18 20 mph 1016.3mb 47f 43f
1:00am 2ft 6s 13 18 mph 1016.7mb 47f 44f
12:00am 2.5ft 6s 13 16 mph 1016.8mb 48f 44f
Tue 09/16 11:00pm 2.5ft 6s 9 11 mph 1017.1mb 48f 44f
10:00pm 2.5ft 6s 11 13 mph 1017.4mb 48f 44f
9:00pm 2.5ft 6s 7 9 mph 1017.4mb 49f 45f
8:00pm 3ft 5s 9 11 mph 1017.2mb 49f 46f
7:00pm 3ft 6s 13 16 mph 1016.9mb 49f 46f
5:00pm 3.5ft 6s 18 22 mph 1016mb 49f 46f
4:00pm 3.5ft 5s 13 16 mph 1014.7mb 49f 51f
3:00pm 3.5ft 6s 13 16 mph 1014mb 49f 50f
2:00pm 3.5ft 5s 16 18 mph 1013.6mb 49f 49f
1:00pm 3.5ft 5s 13
mph
1013.6mb 49f 47f
12:00pm 3.5ft 5s 16 18 mph 1013.6mb 49f 47f
11:00am 3.5ft 5s 16 18 mph 1013.4mb 49f 47f
10:00am 4ft 5s 16 18 mph 1014mb 48f 47f
9:00am 4ft 5s 18 20 mph 1014.1mb 48f 47f
8:00am 3.5ft 5s 18 22 mph 1014.2mb 48f 47f
7:00am 3ft 5s 16 18 mph 1014.9mb 48f 47f
6:00am 3.5ft 5s 18 20 mph 1015.1mb 48f 47f
5:00am 3ft 4s 16 20 mph 1015.2mb 47f 48f